createdAt,value
2023-04-04T00:00:28.002Z,100.00
2023-04-04T00:03:00.848Z,100.00
2023-04-04T00:05:34.649Z,100.00
2023-04-04T00:08:07.615Z,100.00
2023-04-04T00:10:40.379Z,100.00
2023-04-04T00:13:13.132Z,100.00
2023-04-04T00:15:45.976Z,100.00
2023-04-04T00:18:18.597Z,100.00
2023-04-04T00:20:51.033Z,100.00
2023-04-04T00:23:23.858Z,100.00
2023-04-04T00:25:56.527Z,100.00
2023-04-04T00:28:29.001Z,100.00
2023-04-04T00:31:02.891Z,100.00
2023-04-04T00:33:35.517Z,100.00
2023-04-04T00:36:09.346Z,100.00
2023-04-04T00:38:42.058Z,100.00
2023-04-04T00:41:15.144Z,100.00
2023-04-04T00:43:48.501Z,100.00
2023-04-04T00:46:21.101Z,100.00
2023-04-04T00:48:55.369Z,100.00
2023-04-04T00:51:27.895Z,100.00
2023-04-04T00:54:01.030Z,100.00
2023-04-04T00:56:35.005Z,100.00
2023-04-04T00:59:08.113Z,100.00
2023-04-04T04:34:46.286Z,100.00
2023-04-04T04:37:18.915Z,100.00
2023-04-04T04:39:54.493Z,100.00
2023-04-04T04:42:54.903Z,100.00
2023-04-04T04:45:28.037Z,100.00
2023-04-04T04:48:09.986Z,100.00
2023-04-04T04:50:49.270Z,100.00
2023-04-04T04:53:27.460Z,100.00
2023-04-04T04:55:59.977Z,100.00
2023-04-04T04:58:32.298Z,100.00
2023-04-04T05:01:06.249Z,100.00
2023-04-04T05:03:41.569Z,100.00
2023-04-04T05:06:15.931Z,100.00
2023-04-04T05:08:49.477Z,100.00
2023-04-04T05:11:40.190Z,100.00
2023-04-04T05:14:13.241Z,100.00
2023-04-04T05:16:52.353Z,100.00
2023-04-04T05:19:24.682Z,100.00
2023-04-04T05:21:58.857Z,100.00
2023-04-04T05:24:40.001Z,100.00
2023-04-04T05:27:12.553Z,100.00
2023-04-04T05:29:49.483Z,100.00
2023-04-04T05:32:21.976Z,100.00
2023-04-04T05:34:59.589Z,100.00
2023-04-04T05:37:34.882Z,100.00
2023-04-04T05:40:06.572Z,100.00
2023-04-04T05:42:39.155Z,100.00
2023-04-04T05:45:14.296Z,100.00
2023-04-04T05:47:49.039Z,100.00
2023-04-04T05:50:21.170Z,100.00
2023-04-04T05:52:57.393Z,100.00
2023-04-04T05:55:29.762Z,100.00
2023-04-04T05:58:02.146Z,100.00
2023-04-04T06:00:47.772Z,100.00
2023-04-04T06:03:21.962Z,100.00
2023-04-04T06:05:56.044Z,100.00
2023-04-04T06:08:28.873Z,100.00
2023-04-04T06:11:01.148Z,100.00
2023-04-04T06:13:33.410Z,100.00
2023-04-04T06:16:11.403Z,100.00
2023-04-04T06:18:43.632Z,100.00
2023-04-04T06:21:16.335Z,100.00
2023-04-04T06:23:48.674Z,100.00
2023-04-04T06:26:20.891Z,100.00
2023-04-04T06:28:53.848Z,100.00
2023-04-04T06:31:38.457Z,100.00
2023-04-04T06:34:17.679Z,100.00
2023-04-04T06:37:15.707Z,100.00
2023-04-04T06:39:56.913Z,100.00
2023-04-04T06:42:31.993Z,100.00
2023-04-04T06:45:15.869Z,100.00
2023-04-04T06:47:50.351Z,100.00
2023-04-04T06:50:23.880Z,100.00
2023-04-04T06:52:55.969Z,100.00
2023-04-04T06:55:28.853Z,100.00
2023-04-04T06:58:02.317Z,100.00
2023-04-04T07:00:34.532Z,100.00
2023-04-04T07:03:06.664Z,100.00
2023-04-04T07:05:41.756Z,100.00
2023-04-04T07:08:13.934Z,100.00
2023-04-04T07:10:46.576Z,100.00
2023-04-04T07:13:18.686Z,100.00
2023-04-04T07:15:51.421Z,100.00
2023-04-04T07:18:23.642Z,100.00
2023-04-04T07:20:55.951Z,100.00
2023-04-04T07:23:28.398Z,100.00
2023-04-04T07:26:00.581Z,100.00
2023-04-04T07:28:32.933Z,100.00
2023-04-04T07:31:05.750Z,100.00
2023-04-04T07:33:37.904Z,100.00
2023-04-04T07:36:10.244Z,100.00
2023-04-04T07:38:42.439Z,99.56
2023-04-04T07:41:14.871Z,99.97
2023-04-04T07:43:46.859Z,97.05
2023-04-04T07:46:20.626Z,98.06
2023-04-04T07:48:55.853Z,99.40
2023-04-04T07:51:31.737Z,99.40
2023-04-04T07:54:04.450Z,99.65
2023-04-04T07:56:36.626Z,99.29
2023-04-04T07:59:09.101Z,97.57
2023-04-04T08:01:41.634Z,97.78
2023-04-04T08:04:14.017Z,97.28
2023-04-04T08:06:46.471Z,95.60
2023-04-04T08:09:18.628Z,93.95
2023-04-04T08:11:54.013Z,96.17
2023-04-04T08:14:29.302Z,95.75
2023-04-04T08:17:01.875Z,95.51
2023-04-04T08:19:34.184Z,95.48
2023-04-04T08:22:06.825Z,92.00
2023-04-04T08:24:39.048Z,91.27
2023-04-04T08:27:11.398Z,93.81
2023-04-04T08:29:44.446Z,92.61
2023-04-04T08:32:16.639Z,92.00
2023-04-04T08:34:48.896Z,90.93
2023-04-04T08:37:21.030Z,93.30
2023-04-04T08:39:53.278Z,88.88
2023-04-04T08:42:26.663Z,88.45
2023-04-04T08:45:04.422Z,84.31
2023-04-04T08:47:41.386Z,87.08
2023-04-04T08:50:13.969Z,88.61
2023-04-04T08:52:49.480Z,86.54
2023-04-04T08:55:22.980Z,86.45
2023-04-04T08:57:55.988Z,86.06
2023-04-04T09:00:28.601Z,87.85
2023-04-04T09:03:08.397Z,88.25
2023-04-04T09:05:41.717Z,90.56
2023-04-04T09:08:18.473Z,83.73
2023-04-04T09:10:51.768Z,85.40
2023-04-04T09:13:23.863Z,83.15
2023-04-04T09:15:59.113Z,82.27
2023-04-04T09:18:32.042Z,79.45
2023-04-04T09:21:12.847Z,78.07
2023-04-04T09:23:46.215Z,78.14
2023-04-04T09:26:19.756Z,78.36
2023-04-04T09:28:55.934Z,77.65
2023-04-04T09:31:28.696Z,75.92
2023-04-04T09:34:02.384Z,76.79
2023-04-04T09:36:35.428Z,79.59
2023-04-04T09:39:08.520Z,77.08
2023-04-04T09:41:42.831Z,75.70
2023-04-04T09:44:15.885Z,77.13
2023-04-04T09:46:52.401Z,77.81
2023-04-04T09:49:24.619Z,75.58
2023-04-04T09:51:58.069Z,66.38
2023-04-04T09:54:32.921Z,66.74
2023-04-04T09:57:05.463Z,64.89
2023-04-04T09:59:38.096Z,64.39
2023-04-04T10:02:11.900Z,64.24
2023-04-04T10:04:48.886Z,61.93
2023-04-04T10:07:24.344Z,66.69
2023-04-04T10:09:56.599Z,63.76
2023-04-04T10:12:29.992Z,64.15
2023-04-04T10:15:02.984Z,66.38
2023-04-04T10:17:41.173Z,69.02
2023-04-04T10:20:14.665Z,70.68
2023-04-04T10:22:48.055Z,68.03
2023-04-04T10:25:20.628Z,64.67
2023-04-04T10:27:54.155Z,64.91
2023-04-04T10:30:26.238Z,65.75
2023-04-04T10:33:08.630Z,65.69
2023-04-04T10:35:42.702Z,67.73
2023-04-04T10:38:16.243Z,64.94
2023-04-04T10:40:51.784Z,65.55
2023-04-04T10:43:29.056Z,63.22
2023-04-04T10:46:05.116Z,64.79
2023-04-04T10:48:38.313Z,64.18
2023-04-04T10:53:58.796Z,64.65
2023-04-04T10:56:32.013Z,68.51
2023-04-04T10:59:20.322Z,68.74
2023-04-04T11:01:57.782Z,68.49
2023-04-04T11:04:44.613Z,61.00
2023-04-04T11:07:18.932Z,59.65
2023-04-04T11:09:56.311Z,65.66
2023-04-04T11:12:36.516Z,66.63
2023-04-04T11:15:14.732Z,66.30
2023-04-04T11:18:17.510Z,68.26
2023-04-04T11:20:56.072Z,67.27
2023-04-04T11:23:28.755Z,66.83
2023-04-04T11:26:01.845Z,67.77
2023-04-04T11:28:47.464Z,65.61
2023-04-04T11:31:45.747Z,64.21
2023-04-04T11:34:31.304Z,61.66
2023-04-04T11:37:19.327Z,64.23
2023-04-04T11:39:59.414Z,65.45
2023-04-04T11:42:39.102Z,66.17
2023-04-04T11:45:11.797Z,66.49
2023-04-04T11:47:50.652Z,67.33
2023-04-04T11:50:23.524Z,66.49
2023-04-04T11:52:57.380Z,66.74
2023-04-04T11:55:30.184Z,67.67
2023-04-04T11:58:12.616Z,69.61
2023-04-04T12:00:45.416Z,70.58
2023-04-04T12:03:19.750Z,67.50
2023-04-04T12:05:53.283Z,68.40
2023-04-04T12:08:26.037Z,68.03
2023-04-04T12:10:58.275Z,69.84
2023-04-04T12:13:35.236Z,69.63
2023-04-04T12:16:08.281Z,69.38
2023-04-04T12:18:40.620Z,70.49
2023-04-04T12:21:13.519Z,70.69
2023-04-04T12:23:46.150Z,69.52
2023-04-04T12:26:19.356Z,68.41
2023-04-04T12:28:53.751Z,70.48
2023-04-04T12:31:27.517Z,70.51
2023-04-04T12:34:00.244Z,69.82
2023-04-04T12:36:33.288Z,69.24
2023-04-04T12:39:07.666Z,70.86
2023-04-04T12:41:53.248Z,72.22
2023-04-04T12:44:34.308Z,71.66
2023-04-04T12:47:07.761Z,73.40
2023-04-04T12:49:44.723Z,72.62
2023-04-04T12:52:24.746Z,73.46
2023-04-04T12:55:08.043Z,73.65
2023-04-04T12:57:40.814Z,74.48
2023-04-04T13:00:14.469Z,75.72
2023-04-04T13:02:47.233Z,76.43
2023-04-04T13:05:22.482Z,76.30
2023-04-04T13:08:06.877Z,76.44
2023-04-04T13:11:08.440Z,76.56
2023-04-04T13:13:44.406Z,76.14
2023-04-04T13:16:31.475Z,76.57
2023-04-04T13:19:03.875Z,74.39
2023-04-04T13:21:36.734Z,75.31
2023-04-04T13:24:10.823Z,74.61
2023-04-04T13:26:43.076Z,73.45
2023-04-04T13:29:18.148Z,72.96
2023-04-04T13:31:50.305Z,73.17
2023-04-04T13:34:28.504Z,71.03
2023-04-04T13:37:01.025Z,71.23
2023-04-04T13:39:37.757Z,71.43
2023-04-04T13:42:13.378Z,72.80
2023-04-04T13:44:48.819Z,74.10
2023-04-04T13:47:23.226Z,72.93
2023-04-04T13:49:56.256Z,72.98
2023-04-04T13:52:33.719Z,75.20
2023-04-04T13:55:07.544Z,74.99
2023-04-04T13:57:39.765Z,73.72
2023-04-04T14:00:15.057Z,72.91
2023-04-04T14:02:49.970Z,73.33
2023-04-04T14:05:25.345Z,72.44
2023-04-04T14:07:57.437Z,71.36
2023-04-04T14:10:30.149Z,70.55
2023-04-04T14:13:02.733Z,70.07
2023-04-04T14:15:35.344Z,71.11
2023-04-04T14:18:08.216Z,70.19
2023-04-04T14:20:40.546Z,70.02
2023-04-04T14:23:12.850Z,70.14
2023-04-04T14:25:45.164Z,71.57
2023-04-04T14:28:17.488Z,71.72
2023-04-04T14:30:52.717Z,71.23
2023-04-04T14:33:36.798Z,70.01
2023-04-04T14:36:12.802Z,69.19
2023-04-04T14:38:45.604Z,68.78
2023-04-04T14:41:17.858Z,70.06
2023-04-04T14:43:50.810Z,68.52
2023-04-04T14:46:23.776Z,70.15
2023-04-04T14:48:56.572Z,71.17
2023-04-04T14:51:28.909Z,72.18
2023-04-04T14:54:02.720Z,71.30
2023-04-04T14:56:34.924Z,71.55
2023-04-04T14:59:08.698Z,70.68
2023-04-04T15:01:40.931Z,71.57
2023-04-04T15:04:16.097Z,71.62
2023-04-04T15:06:49.689Z,71.14
2023-04-04T15:09:23.028Z,71.62
2023-04-04T15:11:55.075Z,70.57
2023-04-04T15:14:27.045Z,70.26
2023-04-04T15:16:59.372Z,72.44
2023-04-04T15:19:31.816Z,72.27
2023-04-04T15:22:04.456Z,71.72
2023-04-04T15:24:36.800Z,71.70
2023-04-04T15:27:09.323Z,70.31
2023-04-04T15:29:42.411Z,71.28
2023-04-04T15:32:14.789Z,71.63
2023-04-04T15:34:46.962Z,71.13
2023-04-04T15:37:19.255Z,71.60
2023-04-04T15:39:54.032Z,72.18
2023-04-04T15:42:41.690Z,71.78
2023-04-04T15:45:16.418Z,72.24
2023-04-04T15:47:48.581Z,71.82
2023-04-04T15:50:23.294Z,71.14
2023-04-04T15:52:57.176Z,70.42
2023-04-04T15:55:30.487Z,69.91
2023-04-04T15:58:03.041Z,69.41
2023-04-04T16:00:47.402Z,69.61
2023-04-04T16:03:20.833Z,69.26
2023-04-04T16:05:54.034Z,70.30
2023-04-04T16:08:26.862Z,70.40
2023-04-04T16:11:00.526Z,71.34
2023-04-04T16:13:33.009Z,71.74
2023-04-04T16:16:06.157Z,71.10
2023-04-04T16:18:38.991Z,71.36
2023-04-04T16:21:11.282Z,71.56
2023-04-04T16:23:44.152Z,71.63
2023-04-04T16:26:16.528Z,71.32
2023-04-04T16:28:50.400Z,71.37
2023-04-04T16:31:23.646Z,71.45
2023-04-04T16:34:00.491Z,71.32
2023-04-04T16:36:33.774Z,70.66
2023-04-04T16:39:08.878Z,69.00
2023-04-04T16:41:43.194Z,69.74
2023-04-04T16:44:16.574Z,70.26
2023-04-04T16:46:49.047Z,70.56
2023-04-04T16:49:21.259Z,70.57
2023-04-04T16:51:53.504Z,71.12
2023-04-04T16:54:25.773Z,71.51
2023-04-04T16:56:58.186Z,71.75
2023-04-04T16:59:30.434Z,72.36
2023-04-04T17:02:05.572Z,70.24
2023-04-04T17:04:41.187Z,71.15
2023-04-04T17:07:14.508Z,72.02
2023-04-04T17:09:48.870Z,72.03
2023-04-04T17:12:21.761Z,72.45
2023-04-04T17:14:54.950Z,73.03
2023-04-04T17:17:27.400Z,71.86
2023-04-04T17:19:59.869Z,71.28
2023-04-04T17:22:33.001Z,71.38
2023-04-04T17:25:05.138Z,71.97
2023-04-04T17:27:39.864Z,69.73
2023-04-04T17:30:14.510Z,71.03
2023-04-04T17:32:47.404Z,71.59
2023-04-04T17:35:19.571Z,71.05
2023-04-04T17:37:52.095Z,71.54
2023-04-04T17:40:24.374Z,70.07
2023-04-04T17:42:56.857Z,69.53
2023-04-04T17:45:30.428Z,70.23
2023-04-04T17:48:03.296Z,68.73
2023-04-04T17:50:35.570Z,68.34
2023-04-04T17:53:10.889Z,69.27
2023-04-04T17:55:43.372Z,70.29
2023-04-04T17:58:16.113Z,70.05
2023-04-04T18:00:54.513Z,69.68
2023-04-04T18:03:28.348Z,69.42
2023-04-04T18:06:03.311Z,69.86
2023-04-04T18:08:35.550Z,70.49
2023-04-04T18:11:10.929Z,70.95
2023-04-04T18:13:43.381Z,70.89
2023-04-04T18:16:15.705Z,70.86
2023-04-04T18:18:48.245Z,71.11
2023-04-04T18:24:47.592Z,71.10
2023-04-04T18:27:21.244Z,72.05
2023-04-04T18:29:53.614Z,72.28
2023-04-04T18:39:22.697Z,72.58
2023-04-04T18:41:54.974Z,71.58
2023-04-04T18:44:27.556Z,69.60
2023-04-04T18:47:04.513Z,69.60
2023-04-04T18:49:37.432Z,69.67
2023-04-04T18:52:09.556Z,70.03
2023-04-04T18:54:42.179Z,70.73
2023-04-04T18:57:19.493Z,70.41
2023-04-04T18:59:52.211Z,70.05
2023-04-04T19:02:24.544Z,70.55
2023-04-04T19:05:01.683Z,70.25
2023-04-04T19:07:35.880Z,70.47
2023-04-04T19:10:10.240Z,71.68
2023-04-04T19:12:42.852Z,70.76
2023-04-04T19:15:15.582Z,70.61
2023-04-04T19:17:48.395Z,70.66
2023-04-04T19:20:21.945Z,70.19
2023-04-04T19:22:54.128Z,71.04
2023-04-04T19:25:26.814Z,71.66
2023-04-04T19:28:00.065Z,72.03
2023-04-04T19:30:54.866Z,72.06
2023-04-04T19:33:28.689Z,72.92
2023-04-04T19:36:12.053Z,73.97
2023-04-04T19:38:46.624Z,74.66
2023-04-04T19:41:37.341Z,74.51
2023-04-04T19:44:16.734Z,74.82
2023-04-04T19:46:49.516Z,75.23
2023-04-04T19:49:24.152Z,75.26
2023-04-04T19:52:00.779Z,75.41
2023-04-04T19:54:39.618Z,76.12
2023-04-04T19:57:21.585Z,75.17
2023-04-04T20:00:14.295Z,75.29
2023-04-04T20:02:58.318Z,75.47
2023-04-04T20:05:53.801Z,76.59
2023-04-04T20:08:26.412Z,77.49
2023-04-04T20:10:59.451Z,77.42
2023-04-04T20:13:33.348Z,77.32
2023-04-04T20:16:13.281Z,78.02
2023-04-04T20:18:47.427Z,78.45
2023-04-04T20:21:23.221Z,79.01
2023-04-04T20:23:57.938Z,78.94
2023-04-04T20:26:51.556Z,79.52
2023-04-04T20:29:26.829Z,79.42
2023-04-04T20:32:02.783Z,78.73
2023-04-04T20:34:42.971Z,78.74
2023-04-04T20:37:22.380Z,79.06
2023-04-04T20:39:59.457Z,78.77
2023-04-04T20:42:41.365Z,78.55
2023-04-04T20:45:47.104Z,78.99
2023-04-04T20:48:40.110Z,78.68
2023-04-04T20:51:26.112Z,79.28
2023-04-04T20:54:01.354Z,80.03
2023-04-04T20:56:56.943Z,79.73
2023-04-04T20:59:43.560Z,79.52
2023-04-04T21:02:20.103Z,80.17
2023-04-04T21:04:52.689Z,80.30
2023-04-04T21:07:43.955Z,80.00
2023-04-04T21:10:46.997Z,80.26
2023-04-04T21:13:20.724Z,80.50
2023-04-04T21:16:01.189Z,80.69
2023-04-04T21:18:35.299Z,81.15
2023-04-04T21:21:20.367Z,82.02
2023-04-04T21:23:54.391Z,82.45
2023-04-04T21:26:41.156Z,82.65
2023-04-04T21:29:22.641Z,83.94
2023-04-04T21:31:56.124Z,84.50
2023-04-04T21:34:29.357Z,85.07
2023-04-04T21:37:03.884Z,85.96
2023-04-04T21:39:38.071Z,85.62
2023-04-04T21:42:10.199Z,85.94
2023-04-04T21:44:42.402Z,85.56
2023-04-04T21:47:15.890Z,84.91
2023-04-04T21:49:48.513Z,85.44
2023-04-04T21:52:23.129Z,85.91
2023-04-04T21:54:55.830Z,85.97
2023-04-04T21:57:27.838Z,85.69
2023-04-04T21:59:59.996Z,86.73
2023-04-04T22:02:32.071Z,85.94
2023-04-04T22:05:04.646Z,86.21
2023-04-04T22:07:36.750Z,85.96
2023-04-04T22:10:23.847Z,86.24
2023-04-04T22:12:59.818Z,86.34
2023-04-04T22:15:32.240Z,86.31
2023-04-04T22:18:06.441Z,85.99
2023-04-04T22:20:40.181Z,86.01
2023-04-04T22:23:13.467Z,86.61
2023-04-04T22:25:45.866Z,86.13
2023-04-04T22:28:18.448Z,86.30
2023-04-04T22:30:50.579Z,87.69
2023-04-04T22:33:25.202Z,87.63
2023-04-04T22:35:58.281Z,87.77
2023-04-04T22:38:34.404Z,87.85
2023-04-04T22:41:06.913Z,87.66
2023-04-04T22:43:39.166Z,86.95
2023-04-04T22:46:11.451Z,86.80
2023-04-04T22:48:46.779Z,87.07
2023-04-04T22:51:21.325Z,87.15
2023-04-04T22:53:58.260Z,87.00
2023-04-04T22:56:30.917Z,87.28
2023-04-04T22:59:04.850Z,87.03
2023-04-04T23:01:37.224Z,87.04
2023-04-04T23:04:09.309Z,87.02
2023-04-04T23:06:41.645Z,87.00
2023-04-04T23:09:13.738Z,87.65
2023-04-04T23:11:47.412Z,87.79
2023-04-04T23:14:19.806Z,87.79
2023-04-04T23:16:53.134Z,87.80
